sensor_id;sensor_type;location;lat;lon;timestamp;P1;durP1;ratioP1;P2;durP2;ratioP2
9892;SDS011;4985;49.092;8.542;2023-09-18T00:01:25;3.47;;;1.67;;
9892;SDS011;4985;49.092;8.542;2023-09-18T00:03:53;2.20;;;1.70;;
9892;SDS011;4985;49.092;8.542;2023-09-18T00:06:20;2.70;;;1.90;;
9892;SDS011;4985;49.092;8.542;2023-09-18T00:08:50;2.72;;;1.95;;
9892;SDS011;4985;49.092;8.542;2023-09-18T00:11:17;2.85;;;1.60;;
9892;SDS011;4985;49.092;8.542;2023-09-18T00:13:44;2.72;;;1.62;;
9892;SDS011;4985;49.092;8.542;2023-09-18T00:16:10;3.67;;;1.90;;
9892;SDS011;4985;49.092;8.542;2023-09-18T00:18:38;2.78;;;2.20;;
9892;SDS011;4985;49.092;8.542;2023-09-18T00:21:04;4.15;;;1.60;;
9892;SDS011;4985;49.092;8.542;2023-09-18T00:23:31;5.43;;;1.83;;
9892;SDS011;4985;49.092;8.542;2023-09-18T00:26:01;2.22;;;1.70;;
9892;SDS011;4985;49.092;8.542;2023-09-18T00:28:28;2.33;;;1.70;;
9892;SDS011;4985;49.092;8.542;2023-09-18T00:30:55;4.80;;;1.92;;
9892;SDS011;4985;49.092;8.542;2023-09-18T00:33:21;3.05;;;1.80;;
9892;SDS011;4985;49.092;8.542;2023-09-18T00:35:49;5.07;;;2.45;;
9892;SDS011;4985;49.092;8.542;2023-09-18T00:38:16;2.75;;;1.87;;
9892;SDS011;4985;49.092;8.542;2023-09-18T00:40:43;3.25;;;1.67;;
9892;SDS011;4985;49.092;8.542;2023-09-18T00:43:11;2.72;;;1.85;;
9892;SDS011;4985;49.092;8.542;2023-09-18T00:45:39;2.33;;;1.70;;
9892;SDS011;4985;49.092;8.542;2023-09-18T00:48:08;2.80;;;1.87;;
9892;SDS011;4985;49.092;8.542;2023-09-18T00:50:35;4.50;;;1.80;;
9892;SDS011;4985;49.092;8.542;2023-09-18T00:53:02;2.10;;;1.83;;
9892;SDS011;4985;49.092;8.542;2023-09-18T00:55:30;2.87;;;1.90;;
9892;SDS011;4985;49.092;8.542;2023-09-18T00:57:57;3.92;;;2.17;;
9892;SDS011;4985;49.092;8.542;2023-09-18T01:00:25;3.90;;;2.08;;
9892;SDS011;4985;49.092;8.542;2023-09-18T01:02:52;2.42;;;1.65;;
9892;SDS011;4985;49.092;8.542;2023-09-18T01:05:19;3.22;;;2.00;;
9892;SDS011;4985;49.092;8.542;2023-09-18T01:07:45;2.08;;;1.83;;
9892;SDS011;4985;49.092;8.542;2023-09-18T01:10:12;1.65;;;1.55;;
9892;SDS011;4985;49.092;8.542;2023-09-18T01:12:45;2.15;;;1.77;;
9892;SDS011;4985;49.092;8.542;2023-09-18T01:15:17;3.95;;;1.80;;
9892;SDS011;4985;49.092;8.542;2023-09-18T01:17:49;3.85;;;1.87;;
9892;SDS011;4985;49.092;8.542;2023-09-18T01:20:16;2.12;;;1.73;;
9892;SDS011;4985;49.092;8.542;2023-09-18T01:22:44;3.10;;;1.83;;
9892;SDS011;4985;49.092;8.542;2023-09-18T01:25:10;3.40;;;1.77;;
9892;SDS011;4985;49.092;8.542;2023-09-18T01:27:37;3.75;;;2.15;;
9892;SDS011;4985;49.092;8.542;2023-09-18T01:30:04;3.58;;;2.15;;
9892;SDS011;4985;49.092;8.542;2023-09-18T01:32:31;2.37;;;1.77;;
9892;SDS011;4985;49.092;8.542;2023-09-18T01:35:01;4.62;;;2.47;;
9892;SDS011;4985;49.092;8.542;2023-09-18T01:37:31;2.85;;;1.92;;
9892;SDS011;4985;49.092;8.542;2023-09-18T01:40:02;3.95;;;1.98;;
9892;SDS011;4985;49.092;8.542;2023-09-18T01:42:31;3.03;;;1.98;;
9892;SDS011;4985;49.092;8.542;2023-09-18T01:44:58;3.10;;;1.95;;
9892;SDS011;4985;49.092;8.542;2023-09-18T01:47:25;5.47;;;1.95;;
9892;SDS011;4985;49.092;8.542;2023-09-18T01:49:52;2.75;;;1.67;;
9892;SDS011;4985;49.092;8.542;2023-09-18T01:52:19;3.55;;;1.73;;
9892;SDS011;4985;49.092;8.542;2023-09-18T01:54:46;3.05;;;1.92;;
9892;SDS011;4985;49.092;8.542;2023-09-18T01:57:14;3.33;;;2.15;;
9892;SDS011;4985;49.092;8.542;2023-09-18T01:59:41;2.35;;;1.85;;
9892;SDS011;4985;49.092;8.542;2023-09-18T02:02:08;3.72;;;2.10;;
9892;SDS011;4985;49.092;8.542;2023-09-18T02:04:37;3.90;;;2.22;;
9892;SDS011;4985;49.092;8.542;2023-09-18T02:07:03;3.90;;;2.08;;
9892;SDS011;4985;49.092;8.542;2023-09-18T02:09:30;2.65;;;2.00;;
9892;SDS011;4985;49.092;8.542;2023-09-18T02:11:56;6.32;;;2.50;;
9892;SDS011;4985;49.092;8.542;2023-09-18T02:14:24;3.40;;;1.90;;
9892;SDS011;4985;49.092;8.542;2023-09-18T02:16:51;1.90;;;1.52;;
9892;SDS011;4985;49.092;8.542;2023-09-18T02:19:19;3.85;;;2.30;;
9892;SDS011;4985;49.092;8.542;2023-09-18T02:21:45;3.62;;;1.85;;
9892;SDS011;4985;49.092;8.542;2023-09-18T02:24:12;3.42;;;2.20;;
9892;SDS011;4985;49.092;8.542;2023-09-18T02:26:38;3.08;;;1.90;;
9892;SDS011;4985;49.092;8.542;2023-09-18T02:29:05;3.67;;;1.85;;
9892;SDS011;4985;49.092;8.542;2023-09-18T02:31:36;4.07;;;2.30;;
9892;SDS011;4985;49.092;8.542;2023-09-18T02:34:03;5.25;;;1.95;;
9892;SDS011;4985;49.092;8.542;2023-09-18T02:36:29;4.62;;;2.40;;
9892;SDS011;4985;49.092;8.542;2023-09-18T02:38:56;2.95;;;2.10;;
9892;SDS011;4985;49.092;8.542;2023-09-18T02:41:23;2.47;;;1.90;;
9892;SDS011;4985;49.092;8.542;2023-09-18T02:43:49;6.07;;;2.20;;
9892;SDS011;4985;49.092;8.542;2023-09-18T02:46:16;3.55;;;1.90;;
9892;SDS011;4985;49.092;8.542;2023-09-18T02:48:44;3.12;;;1.95;;
9892;SDS011;4985;49.092;8.542;2023-09-18T02:51:10;3.33;;;2.20;;
9892;SDS011;4985;49.092;8.542;2023-09-18T02:53:37;4.40;;;2.67;;
9892;SDS011;4985;49.092;8.542;2023-09-18T02:56:03;4.22;;;2.20;;
9892;SDS011;4985;49.092;8.542;2023-09-18T02:58:30;2.62;;;1.90;;
9892;SDS011;4985;49.092;8.542;2023-09-18T03:00:57;3.75;;;2.05;;
9892;SDS011;4985;49.092;8.542;2023-09-18T03:03:24;3.85;;;1.80;;
9892;SDS011;4985;49.092;8.542;2023-09-18T03:05:52;2.85;;;2.12;;
9892;SDS011;4985;49.092;8.542;2023-09-18T03:08:19;2.70;;;2.12;;
9892;SDS011;4985;49.092;8.542;2023-09-18T03:10:45;2.20;;;1.83;;
9892;SDS011;4985;49.092;8.542;2023-09-18T03:13:13;3.45;;;2.00;;
9892;SDS011;4985;49.092;8.542;2023-09-18T03:15:41;3.10;;;2.10;;
9892;SDS011;4985;49.092;8.542;2023-09-18T03:18:11;4.65;;;2.03;;
9892;SDS011;4985;49.092;8.542;2023-09-18T03:20:37;3.87;;;2.22;;
9892;SDS011;4985;49.092;8.542;2023-09-18T03:23:05;3.08;;;2.33;;
9892;SDS011;4985;49.092;8.542;2023-09-18T03:25:32;3.15;;;1.85;;
9892;SDS011;4985;49.092;8.542;2023-09-18T03:27:59;5.93;;;2.10;;
9892;SDS011;4985;49.092;8.542;2023-09-18T03:30:25;3.92;;;2.17;;
9892;SDS011;4985;49.092;8.542;2023-09-18T03:32:52;3.47;;;2.00;;
9892;SDS011;4985;49.092;8.542;2023-09-18T03:35:19;2.53;;;1.83;;
9892;SDS011;4985;49.092;8.542;2023-09-18T03:37:47;5.10;;;1.92;;
9892;SDS011;4985;49.092;8.542;2023-09-18T03:40:15;3.35;;;2.55;;
9892;SDS011;4985;49.092;8.542;2023-09-18T03:42:43;4.78;;;2.75;;
9892;SDS011;4985;49.092;8.542;2023-09-18T03:45:10;4.85;;;2.78;;
9892;SDS011;4985;49.092;8.542;2023-09-18T03:47:37;4.95;;;2.35;;
9892;SDS011;4985;49.092;8.542;2023-09-18T03:50:05;5.10;;;2.33;;
9892;SDS011;4985;49.092;8.542;2023-09-18T03:52:32;6.43;;;3.12;;
9892;SDS011;4985;49.092;8.542;2023-09-18T03:54:59;7.82;;;1.83;;
9892;SDS011;4985;49.092;8.542;2023-09-18T03:57:27;9.43;;;3.35;;
9892;SDS011;4985;49.092;8.542;2023-09-18T03:59:54;4.40;;;2.45;;
9892;SDS011;4985;49.092;8.542;2023-09-18T04:02:21;7.65;;;2.40;;
9892;SDS011;4985;49.092;8.542;2023-09-18T04:04:50;8.75;;;2.78;;
9892;SDS011;4985;49.092;8.542;2023-09-18T04:07:17;5.32;;;2.47;;
9892;SDS011;4985;49.092;8.542;2023-09-18T04:09:44;6.47;;;2.70;;
9892;SDS011;4985;49.092;8.542;2023-09-18T04:12:11;4.82;;;2.08;;
9892;SDS011;4985;49.092;8.542;2023-09-18T04:14:39;5.18;;;2.17;;
9892;SDS011;4985;49.092;8.542;2023-09-18T04:17:06;3.17;;;1.90;;
9892;SDS011;4985;49.092;8.542;2023-09-18T04:19:32;5.90;;;2.12;;
9892;SDS011;4985;49.092;8.542;2023-09-18T04:21:59;4.90;;;2.28;;
9892;SDS011;4985;49.092;8.542;2023-09-18T04:24:26;5.95;;;2.55;;
9892;SDS011;4985;49.092;8.542;2023-09-18T04:26:52;5.90;;;3.03;;
9892;SDS011;4985;49.092;8.542;2023-09-18T04:29:19;5.68;;;2.05;;
9892;SDS011;4985;49.092;8.542;2023-09-18T04:31:47;8.02;;;2.10;;
9892;SDS011;4985;49.092;8.542;2023-09-18T04:34:14;6.75;;;1.92;;
9892;SDS011;4985;49.092;8.542;2023-09-18T04:36:40;6.80;;;2.10;;
9892;SDS011;4985;49.092;8.542;2023-09-18T04:39:08;4.95;;;2.10;;
9892;SDS011;4985;49.092;8.542;2023-09-18T04:41:35;8.15;;;2.90;;
9892;SDS011;4985;49.092;8.542;2023-09-18T04:44:02;6.35;;;2.12;;
9892;SDS011;4985;49.092;8.542;2023-09-18T04:46:30;3.00;;;2.03;;
9892;SDS011;4985;49.092;8.542;2023-09-18T04:48:58;8.20;;;2.08;;
9892;SDS011;4985;49.092;8.542;2023-09-18T04:51:24;4.55;;;2.28;;
9892;SDS011;4985;49.092;8.542;2023-09-18T04:53:51;6.43;;;2.08;;
9892;SDS011;4985;49.092;8.542;2023-09-18T04:56:19;7.03;;;2.67;;
9892;SDS011;4985;49.092;8.542;2023-09-18T04:58:46;3.83;;;1.87;;
9892;SDS011;4985;49.092;8.542;2023-09-18T05:01:13;6.20;;;2.12;;
9892;SDS011;4985;49.092;8.542;2023-09-18T05:03:40;5.35;;;2.45;;
9892;SDS011;4985;49.092;8.542;2023-09-18T05:06:08;6.32;;;2.17;;
9892;SDS011;4985;49.092;8.542;2023-09-18T05:08:35;9.65;;;2.47;;
9892;SDS011;4985;49.092;8.542;2023-09-18T05:11:02;5.45;;;2.33;;
9892;SDS011;4985;49.092;8.542;2023-09-18T05:13:28;4.47;;;2.10;;
9892;SDS011;4985;49.092;8.542;2023-09-18T05:15:55;4.22;;;2.17;;
9892;SDS011;4985;49.092;8.542;2023-09-18T05:18:23;6.47;;;2.75;;
9892;SDS011;4985;49.092;8.542;2023-09-18T05:20:50;8.32;;;2.35;;
9892;SDS011;4985;49.092;8.542;2023-09-18T05:23:18;6.40;;;3.00;;
9892;SDS011;4985;49.092;8.542;2023-09-18T05:25:44;4.00;;;2.35;;
9892;SDS011;4985;49.092;8.542;2023-09-18T05:28:11;4.03;;;1.98;;
9892;SDS011;4985;49.092;8.542;2023-09-18T05:30:37;5.75;;;2.45;;
9892;SDS011;4985;49.092;8.542;2023-09-18T05:33:04;5.12;;;2.37;;
9892;SDS011;4985;49.092;8.542;2023-09-18T05:35:32;3.75;;;2.03;;
9892;SDS011;4985;49.092;8.542;2023-09-18T05:37:59;4.05;;;2.00;;
9892;SDS011;4985;49.092;8.542;2023-09-18T05:40:27;7.72;;;2.47;;
9892;SDS011;4985;49.092;8.542;2023-09-18T05:42:54;4.05;;;2.28;;
9892;SDS011;4985;49.092;8.542;2023-09-18T05:45:21;9.68;;;2.65;;
9892;SDS011;4985;49.092;8.542;2023-09-18T05:47:47;4.00;;;2.55;;
9892;SDS011;4985;49.092;8.542;2023-09-18T05:50:15;3.33;;;2.25;;
9892;SDS011;4985;49.092;8.542;2023-09-18T05:52:42;5.70;;;2.65;;
9892;SDS011;4985;49.092;8.542;2023-09-18T05:55:09;5.45;;;2.58;;
9892;SDS011;4985;49.092;8.542;2023-09-18T05:57:38;4.18;;;2.03;;
9892;SDS011;4985;49.092;8.542;2023-09-18T06:00:06;4.30;;;2.10;;
9892;SDS011;4985;49.092;8.542;2023-09-18T06:02:33;5.87;;;2.22;;
9892;SDS011;4985;49.092;8.542;2023-09-18T06:05:00;5.90;;;2.47;;
9892;SDS011;4985;49.092;8.542;2023-09-18T06:07:28;6.18;;;2.80;;
9892;SDS011;4985;49.092;8.542;2023-09-18T06:09:55;7.75;;;3.08;;
9892;SDS011;4985;49.092;8.542;2023-09-18T06:12:22;8.02;;;3.03;;
9892;SDS011;4985;49.092;8.542;2023-09-18T06:14:51;8.23;;;2.10;;
9892;SDS011;4985;49.092;8.542;2023-09-18T06:17:18;4.00;;;2.10;;
9892;SDS011;4985;49.092;8.542;2023-09-18T06:19:45;5.28;;;2.00;;
9892;SDS011;4985;49.092;8.542;2023-09-18T06:22:11;3.67;;;1.87;;
9892;SDS011;4985;49.092;8.542;2023-09-18T06:24:38;4.50;;;2.33;;
9892;SDS011;4985;49.092;8.542;2023-09-18T06:27:05;3.53;;;2.30;;
9892;SDS011;4985;49.092;8.542;2023-09-18T06:29:32;8.27;;;2.65;;
9892;SDS011;4985;49.092;8.542;2023-09-18T06:32:00;6.60;;;2.58;;
9892;SDS011;4985;49.092;8.542;2023-09-18T06:34:27;3.75;;;2.10;;
9892;SDS011;4985;49.092;8.542;2023-09-18T06:36:54;6.28;;;2.30;;
9892;SDS011;4985;49.092;8.542;2023-09-18T06:39:20;5.10;;;2.12;;
9892;SDS011;4985;49.092;8.542;2023-09-18T06:41:49;6.05;;;2.15;;
9892;SDS011;4985;49.092;8.542;2023-09-18T06:44:15;6.03;;;2.37;;
9892;SDS011;4985;49.092;8.542;2023-09-18T06:46:42;4.15;;;2.00;;
9892;SDS011;4985;49.092;8.542;2023-09-18T06:49:10;4.62;;;1.48;;
9892;SDS011;4985;49.092;8.542;2023-09-18T06:51:36;6.32;;;2.20;;
9892;SDS011;4985;49.092;8.542;2023-09-18T06:54:03;4.25;;;2.15;;
9892;SDS011;4985;49.092;8.542;2023-09-18T06:56:30;7.87;;;2.40;;
9892;SDS011;4985;49.092;8.542;2023-09-18T06:58:56;4.53;;;2.10;;
9892;SDS011;4985;49.092;8.542;2023-09-18T07:01:23;5.50;;;1.70;;
9892;SDS011;4985;49.092;8.542;2023-09-18T07:03:51;3.10;;;1.73;;
9892;SDS011;4985;49.092;8.542;2023-09-18T07:06:19;3.20;;;1.67;;
9892;SDS011;4985;49.092;8.542;2023-09-18T07:08:46;5.12;;;1.67;;
9892;SDS011;4985;49.092;8.542;2023-09-18T07:11:14;5.80;;;1.98;;
9892;SDS011;4985;49.092;8.542;2023-09-18T07:13:41;4.20;;;2.08;;
9892;SDS011;4985;49.092;8.542;2023-09-18T07:16:08;3.92;;;2.20;;
9892;SDS011;4985;49.092;8.542;2023-09-18T07:18:35;5.22;;;2.47;;
9892;SDS011;4985;49.092;8.542;2023-09-18T07:21:02;5.75;;;2.87;;
9892;SDS011;4985;49.092;8.542;2023-09-18T07:23:30;7.72;;;2.25;;
9892;SDS011;4985;49.092;8.542;2023-09-18T07:25:56;4.22;;;2.15;;
9892;SDS011;4985;49.092;8.542;2023-09-18T07:28:23;6.50;;;2.55;;
9892;SDS011;4985;49.092;8.542;2023-09-18T07:30:50;4.20;;;2.78;;
9892;SDS011;4985;49.092;8.542;2023-09-18T07:33:16;5.85;;;1.98;;
9892;SDS011;4985;49.092;8.542;2023-09-18T07:35:45;5.05;;;2.50;;
9892;SDS011;4985;49.092;8.542;2023-09-18T07:38:13;4.37;;;1.92;;
9892;SDS011;4985;49.092;8.542;2023-09-18T07:40:41;3.70;;;2.20;;
9892;SDS011;4985;49.092;8.542;2023-09-18T07:43:08;3.65;;;2.00;;
9892;SDS011;4985;49.092;8.542;2023-09-18T07:45:34;3.45;;;2.08;;
9892;SDS011;4985;49.092;8.542;2023-09-18T07:48:01;3.90;;;1.90;;
9892;SDS011;4985;49.092;8.542;2023-09-18T07:50:28;3.55;;;1.98;;
9892;SDS011;4985;49.092;8.542;2023-09-18T07:52:57;2.50;;;1.50;;
9892;SDS011;4985;49.092;8.542;2023-09-18T07:55:23;2.67;;;1.55;;
9892;SDS011;4985;49.092;8.542;2023-09-18T07:57:52;3.15;;;1.83;;
9892;SDS011;4985;49.092;8.542;2023-09-18T08:00:19;4.05;;;1.95;;
9892;SDS011;4985;49.092;8.542;2023-09-18T08:02:47;4.50;;;1.62;;
9892;SDS011;4985;49.092;8.542;2023-09-18T08:05:15;2.83;;;1.87;;
9892;SDS011;4985;49.092;8.542;2023-09-18T08:07:42;3.15;;;1.55;;
9892;SDS011;4985;49.092;8.542;2023-09-18T08:10:09;2.97;;;1.20;;
9892;SDS011;4985;49.092;8.542;2023-09-18T08:12:37;2.08;;;1.52;;
9892;SDS011;4985;49.092;8.542;2023-09-18T08:15:06;3.95;;;1.87;;
9892;SDS011;4985;49.092;8.542;2023-09-18T08:17:34;2.25;;;1.40;;
9892;SDS011;4985;49.092;8.542;2023-09-18T08:20:00;3.20;;;1.55;;
9892;SDS011;4985;49.092;8.542;2023-09-18T08:22:28;2.78;;;1.55;;
9892;SDS011;4985;49.092;8.542;2023-09-18T08:24:55;2.55;;;1.48;;
9892;SDS011;4985;49.092;8.542;2023-09-18T08:27:23;2.12;;;1.50;;
9892;SDS011;4985;49.092;8.542;2023-09-18T08:29:50;2.67;;;1.48;;
9892;SDS011;4985;49.092;8.542;2023-09-18T08:32:18;2.78;;;1.42;;
9892;SDS011;4985;49.092;8.542;2023-09-18T08:34:44;1.60;;;1.12;;
9892;SDS011;4985;49.092;8.542;2023-09-18T08:37:11;2.75;;;1.30;;
9892;SDS011;4985;49.092;8.542;2023-09-18T08:39:38;3.30;;;1.70;;
9892;SDS011;4985;49.092;8.542;2023-09-18T08:42:05;3.22;;;1.58;;
9892;SDS011;4985;49.092;8.542;2023-09-18T08:44:35;1.55;;;1.02;;
9892;SDS011;4985;49.092;8.542;2023-09-18T08:47:05;4.07;;;1.55;;
9892;SDS011;4985;49.092;8.542;2023-09-18T08:49:35;2.47;;;1.10;;
9892;SDS011;4985;49.092;8.542;2023-09-18T08:52:03;2.00;;;1.25;;
9892;SDS011;4985;49.092;8.542;2023-09-18T08:54:30;3.62;;;1.42;;
9892;SDS011;4985;49.092;8.542;2023-09-18T08:56:58;2.72;;;1.17;;
9892;SDS011;4985;49.092;8.542;2023-09-18T08:59:25;1.25;;;1.15;;
9892;SDS011;4985;49.092;8.542;2023-09-18T09:01:54;3.03;;;1.40;;
9892;SDS011;4985;49.092;8.542;2023-09-18T09:04:20;6.15;;;1.20;;
9892;SDS011;4985;49.092;8.542;2023-09-18T09:06:50;2.50;;;1.20;;
9892;SDS011;4985;49.092;8.542;2023-09-18T09:09:17;1.92;;;1.20;;
9892;SDS011;4985;49.092;8.542;2023-09-18T09:11:47;0.98;;;0.90;;
9892;SDS011;4985;49.092;8.542;2023-09-18T09:14:15;4.75;;;1.30;;
9892;SDS011;4985;49.092;8.542;2023-09-18T09:16:46;2.47;;;1.00;;
9892;SDS011;4985;49.092;8.542;2023-09-18T09:19:13;1.75;;;1.00;;
9892;SDS011;4985;49.092;8.542;2023-09-18T09:21:41;3.53;;;1.20;;
9892;SDS011;4985;49.092;8.542;2023-09-18T09:24:10;1.25;;;1.12;;
9892;SDS011;4985;49.092;8.542;2023-09-18T09:26:39;2.55;;;1.20;;
9892;SDS011;4985;49.092;8.542;2023-09-18T09:29:15;1.55;;;0.95;;
9892;SDS011;4985;49.092;8.542;2023-09-18T09:31:43;1.58;;;1.20;;
9892;SDS011;4985;49.092;8.542;2023-09-18T09:34:10;3.12;;;1.20;;
9892;SDS011;4985;49.092;8.542;2023-09-18T09:36:50;1.17;;;1.00;;
9892;SDS011;4985;49.092;8.542;2023-09-18T09:39:20;1.30;;;1.20;;
9892;SDS011;4985;49.092;8.542;2023-09-18T09:41:49;1.85;;;1.25;;
9892;SDS011;4985;49.092;8.542;2023-09-18T09:44:17;3.35;;;1.95;;
9892;SDS011;4985;49.092;8.542;2023-09-18T09:46:46;1.70;;;1.25;;
9892;SDS011;4985;49.092;8.542;2023-09-18T09:49:13;2.72;;;1.02;;
9892;SDS011;4985;49.092;8.542;2023-09-18T09:51:40;2.33;;;1.40;;
9892;SDS011;4985;49.092;8.542;2023-09-18T09:54:08;1.33;;;1.17;;
9892;SDS011;4985;49.092;8.542;2023-09-18T09:56:42;2.60;;;1.40;;
9892;SDS011;4985;49.092;8.542;2023-09-18T09:59:10;6.07;;;1.45;;
9892;SDS011;4985;49.092;8.542;2023-09-18T10:01:38;2.22;;;1.60;;
9892;SDS011;4985;49.092;8.542;2023-09-18T10:04:08;3.30;;;1.40;;
9892;SDS011;4985;49.092;8.542;2023-09-18T10:06:36;1.90;;;1.37;;
9892;SDS011;4985;49.092;8.542;2023-09-18T10:09:04;2.90;;;1.20;;
9892;SDS011;4985;49.092;8.542;2023-09-18T10:11:32;3.75;;;1.23;;
9892;SDS011;4985;49.092;8.542;2023-09-18T10:14:04;3.17;;;1.17;;
9892;SDS011;4985;49.092;8.542;2023-09-18T10:16:37;2.80;;;1.20;;
9892;SDS011;4985;49.092;8.542;2023-09-18T10:19:11;2.00;;;1.42;;
9892;SDS011;4985;49.092;8.542;2023-09-18T10:21:45;2.78;;;1.10;;
9892;SDS011;4985;49.092;8.542;2023-09-18T10:24:19;4.00;;;1.95;;
9892;SDS011;4985;49.092;8.542;2023-09-18T10:26:50;2.87;;;1.27;;
9892;SDS011;4985;49.092;8.542;2023-09-18T10:29:23;2.67;;;1.12;;
9892;SDS011;4985;49.092;8.542;2023-09-18T10:31:50;2.22;;;1.20;;
9892;SDS011;4985;49.092;8.542;2023-09-18T10:34:18;2.85;;;1.40;;
9892;SDS011;4985;49.092;8.542;2023-09-18T10:36:46;2.70;;;1.10;;
9892;SDS011;4985;49.092;8.542;2023-09-18T10:39:13;5.00;;;1.20;;
9892;SDS011;4985;49.092;8.542;2023-09-18T10:41:44;2.42;;;1.02;;
9892;SDS011;4985;49.092;8.542;2023-09-18T10:44:13;3.58;;;1.37;;
9892;SDS011;4985;49.092;8.542;2023-09-18T10:46:42;2.80;;;1.25;;
9892;SDS011;4985;49.092;8.542;2023-09-18T10:49:08;1.83;;;1.20;;
9892;SDS011;4985;49.092;8.542;2023-09-18T10:51:37;2.42;;;1.10;;
9892;SDS011;4985;49.092;8.542;2023-09-18T10:54:07;3.53;;;1.30;;
9892;SDS011;4985;49.092;8.542;2023-09-18T10:56:34;1.73;;;1.17;;
9892;SDS011;4985;49.092;8.542;2023-09-18T10:59:01;2.12;;;1.10;;
9892;SDS011;4985;49.092;8.542;2023-09-18T11:01:29;1.83;;;1.40;;
9892;SDS011;4985;49.092;8.542;2023-09-18T11:04:01;4.32;;;1.50;;
9892;SDS011;4985;49.092;8.542;2023-09-18T11:06:33;1.90;;;1.25;;
9892;SDS011;4985;49.092;8.542;2023-09-18T11:09:30;2.62;;;1.12;;
9892;SDS011;4985;49.092;8.542;2023-09-18T11:12:02;3.22;;;1.10;;
9892;SDS011;4985;49.092;8.542;2023-09-18T11:14:41;1.75;;;1.27;;
9892;SDS011;4985;49.092;8.542;2023-09-18T11:20:01;2.05;;;1.00;;
9892;SDS011;4985;49.092;8.542;2023-09-18T11:22:31;1.65;;;1.25;;
9892;SDS011;4985;49.092;8.542;2023-09-18T11:27:56;3.95;;;1.30;;
9892;SDS011;4985;49.092;8.542;2023-09-18T11:30:23;0.93;;;0.88;;
9892;SDS011;4985;49.092;8.542;2023-09-18T11:32:50;2.50;;;1.27;;
9892;SDS011;4985;49.092;8.542;2023-09-18T11:35:17;1.77;;;1.17;;
9892;SDS011;4985;49.092;8.542;2023-09-18T11:37:46;2.62;;;1.45;;
9892;SDS011;4985;49.092;8.542;2023-09-18T11:40:29;2.92;;;1.73;;
9892;SDS011;4985;49.092;8.542;2023-09-18T11:45:48;2.30;;;1.33;;
9892;SDS011;4985;49.092;8.542;2023-09-18T11:48:16;1.27;;;0.95;;
9892;SDS011;4985;49.092;8.542;2023-09-18T11:50:44;1.30;;;1.00;;
9892;SDS011;4985;49.092;8.542;2023-09-18T11:53:12;1.20;;;1.10;;
9892;SDS011;4985;49.092;8.542;2023-09-18T11:55:39;1.10;;;1.00;;
9892;SDS011;4985;49.092;8.542;2023-09-18T11:58:06;1.27;;;1.12;;
9892;SDS011;4985;49.092;8.542;2023-09-18T12:00:34;0.88;;;0.80;;
9892;SDS011;4985;49.092;8.542;2023-09-18T12:03:14;1.42;;;1.10;;
9892;SDS011;4985;49.092;8.542;2023-09-18T12:05:50;2.70;;;1.60;;
9892;SDS011;4985;49.092;8.542;2023-09-18T12:08:20;5.18;;;1.10;;
9892;SDS011;4985;49.092;8.542;2023-09-18T12:10:48;2.03;;;0.80;;
9892;SDS011;4985;49.092;8.542;2023-09-18T12:13:16;2.40;;;1.08;;
9892;SDS011;4985;49.092;8.542;2023-09-18T12:15:43;1.45;;;1.12;;
9892;SDS011;4985;49.092;8.542;2023-09-18T12:18:10;1.10;;;1.00;;
9892;SDS011;4985;49.092;8.542;2023-09-18T12:20:44;1.10;;;0.88;;
9892;SDS011;4985;49.092;8.542;2023-09-18T12:23:11;1.52;;;1.05;;
9892;SDS011;4985;49.092;8.542;2023-09-18T12:25:39;1.02;;;0.95;;
9892;SDS011;4985;49.092;8.542;2023-09-18T12:28:06;1.98;;;1.37;;
9892;SDS011;4985;49.092;8.542;2023-09-18T12:30:33;3.90;;;1.10;;
9892;SDS011;4985;49.092;8.542;2023-09-18T12:33:00;3.35;;;1.30;;
9892;SDS011;4985;49.092;8.542;2023-09-18T12:35:28;1.62;;;1.08;;
9892;SDS011;4985;49.092;8.542;2023-09-18T12:37:55;0.98;;;0.73;;
9892;SDS011;4985;49.092;8.542;2023-09-18T12:40:22;2.37;;;1.10;;
9892;SDS011;4985;49.092;8.542;2023-09-18T12:42:51;1.65;;;0.80;;
9892;SDS011;4985;49.092;8.542;2023-09-18T12:45:20;2.28;;;0.80;;
9892;SDS011;4985;49.092;8.542;2023-09-18T12:47:47;2.28;;;0.93;;
9892;SDS011;4985;49.092;8.542;2023-09-18T12:50:14;1.58;;;1.17;;
9892;SDS011;4985;49.092;8.542;2023-09-18T12:52:40;3.17;;;1.10;;
9892;SDS011;4985;49.092;8.542;2023-09-18T12:55:07;1.55;;;1.08;;
9892;SDS011;4985;49.092;8.542;2023-09-18T12:57:33;1.75;;;1.20;;
9892;SDS011;4985;49.092;8.542;2023-09-18T13:00:08;2.08;;;1.10;;
9892;SDS011;4985;49.092;8.542;2023-09-18T13:02:38;3.65;;;1.17;;
9892;SDS011;4985;49.092;8.542;2023-09-18T13:05:05;1.75;;;0.95;;
9892;SDS011;4985;49.092;8.542;2023-09-18T13:07:42;1.17;;;1.08;;
9892;SDS011;4985;49.092;8.542;2023-09-18T13:10:10;0.95;;;0.85;;
9892;SDS011;4985;49.092;8.542;2023-09-18T13:12:39;2.17;;;0.88;;
9892;SDS011;4985;49.092;8.542;2023-09-18T13:15:06;1.23;;;0.88;;
9892;SDS011;4985;49.092;8.542;2023-09-18T13:17:39;2.78;;;1.23;;
9892;SDS011;4985;49.092;8.542;2023-09-18T13:20:09;3.50;;;1.20;;
9892;SDS011;4985;49.092;8.542;2023-09-18T13:22:38;1.50;;;0.90;;
9892;SDS011;4985;49.092;8.542;2023-09-18T13:25:05;1.25;;;0.85;;
9892;SDS011;4985;49.092;8.542;2023-09-18T13:27:33;1.40;;;0.90;;
9892;SDS011;4985;49.092;8.542;2023-09-18T13:30:00;1.08;;;0.90;;
9892;SDS011;4985;49.092;8.542;2023-09-18T13:32:32;1.85;;;0.80;;
9892;SDS011;4985;49.092;8.542;2023-09-18T13:35:02;1.27;;;0.82;;
9892;SDS011;4985;49.092;8.542;2023-09-18T13:37:30;1.02;;;0.77;;
9892;SDS011;4985;49.092;8.542;2023-09-18T13:39:58;1.67;;;1.00;;
9892;SDS011;4985;49.092;8.542;2023-09-18T13:42:26;1.92;;;0.95;;
9892;SDS011;4985;49.092;8.542;2023-09-18T13:44:55;1.90;;;1.00;;
9892;SDS011;4985;49.092;8.542;2023-09-18T13:47:22;2.10;;;1.10;;
9892;SDS011;4985;49.092;8.542;2023-09-18T13:49:48;1.35;;;0.90;;
9892;SDS011;4985;49.092;8.542;2023-09-18T13:52:17;2.15;;;1.52;;
9892;SDS011;4985;49.092;8.542;2023-09-18T13:54:45;1.42;;;1.25;;
9892;SDS011;4985;49.092;8.542;2023-09-18T13:57:16;1.05;;;0.80;;
9892;SDS011;4985;49.092;8.542;2023-09-18T13:59:43;2.55;;;1.20;;
9892;SDS011;4985;49.092;8.542;2023-09-18T14:02:10;1.85;;;0.98;;
9892;SDS011;4985;49.092;8.542;2023-09-18T14:04:36;1.10;;;1.00;;
9892;SDS011;4985;49.092;8.542;2023-09-18T14:07:03;0.80;;;0.80;;
9892;SDS011;4985;49.092;8.542;2023-09-18T14:09:31;1.15;;;0.90;;
9892;SDS011;4985;49.092;8.542;2023-09-18T14:11:58;3.92;;;1.17;;
9892;SDS011;4985;49.092;8.542;2023-09-18T14:14:24;2.45;;;1.20;;
9892;SDS011;4985;49.092;8.542;2023-09-18T14:16:51;1.92;;;1.12;;
9892;SDS011;4985;49.092;8.542;2023-09-18T14:19:18;1.48;;;1.00;;
9892;SDS011;4985;49.092;8.542;2023-09-18T14:21:45;1.23;;;1.10;;
9892;SDS011;4985;49.092;8.542;2023-09-18T14:24:14;0.95;;;0.80;;
9892;SDS011;4985;49.092;8.542;2023-09-18T14:26:44;2.37;;;1.10;;
9892;SDS011;4985;49.092;8.542;2023-09-18T14:29:11;1.23;;;0.98;;
9892;SDS011;4985;49.092;8.542;2023-09-18T14:31:38;1.37;;;1.20;;
9892;SDS011;4985;49.092;8.542;2023-09-18T14:34:05;1.42;;;1.00;;
9892;SDS011;4985;49.092;8.542;2023-09-18T14:36:31;1.17;;;1.08;;
9892;SDS011;4985;49.092;8.542;2023-09-18T14:38:59;3.62;;;1.10;;
9892;SDS011;4985;49.092;8.542;2023-09-18T14:41:25;1.20;;;1.10;;
9892;SDS011;4985;49.092;8.542;2023-09-18T14:43:53;1.90;;;1.40;;
9892;SDS011;4985;49.092;8.542;2023-09-18T14:46:22;3.05;;;1.05;;
9892;SDS011;4985;49.092;8.542;2023-09-18T14:48:49;1.55;;;1.00;;
9892;SDS011;4985;49.092;8.542;2023-09-18T14:51:15;2.55;;;1.20;;
9892;SDS011;4985;49.092;8.542;2023-09-18T14:53:42;1.55;;;1.20;;
9892;SDS011;4985;49.092;8.542;2023-09-18T14:56:08;1.35;;;1.12;;
9892;SDS011;4985;49.092;8.542;2023-09-18T14:58:35;1.25;;;0.90;;
9892;SDS011;4985;49.092;8.542;2023-09-18T15:01:03;2.62;;;1.27;;
9892;SDS011;4985;49.092;8.542;2023-09-18T15:03:29;2.30;;;1.20;;
9892;SDS011;4985;49.092;8.542;2023-09-18T15:05:56;2.87;;;1.00;;
9892;SDS011;4985;49.092;8.542;2023-09-18T15:08:22;1.25;;;1.12;;
9892;SDS011;4985;49.092;8.542;2023-09-18T15:10:49;0.90;;;0.90;;
9892;SDS011;4985;49.092;8.542;2023-09-18T15:13:16;3.30;;;1.05;;
9892;SDS011;4985;49.092;8.542;2023-09-18T15:15:42;1.02;;;0.90;;
9892;SDS011;4985;49.092;8.542;2023-09-18T15:18:12;1.83;;;1.20;;
9892;SDS011;4985;49.092;8.542;2023-09-18T15:20:38;2.35;;;1.02;;
9892;SDS011;4985;49.092;8.542;2023-09-18T15:23:06;2.65;;;1.00;;
9892;SDS011;4985;49.092;8.542;2023-09-18T15:25:33;2.22;;;1.05;;
9892;SDS011;4985;49.092;8.542;2023-09-18T15:28:03;2.55;;;1.30;;